sensor_id;sensor_type;location;lat;lon;timestamp;pressure;altitude;pressure_sealevel;temperature;humidity
16190;BME280;41754;51.498;7.540;2023-07-16T00:01:49;99712.69;;;19.49;63.38
16190;BME280;41754;51.498;7.540;2023-07-16T00:04:17;99718.03;;;19.49;63.63
16190;BME280;41754;51.498;7.540;2023-07-16T00:06:46;99707.19;;;19.51;63.33
16190;BME280;41754;51.498;7.540;2023-07-16T00:09:14;99720.19;;;19.45;63.66
16190;BME280;41754;51.498;7.540;2023-07-16T00:11:42;99724.03;;;19.43;64.12
16190;BME280;41754;51.498;7.540;2023-07-16T00:14:10;99732.03;;;19.43;63.97
16190;BME280;41754;51.498;7.540;2023-07-16T00:16:38;99731.22;;;19.42;64.11
16190;BME280;41754;51.498;7.540;2023-07-16T00:19:06;99729.03;;;19.46;64.01
16190;BME280;41754;51.498;7.540;2023-07-16T00:21:34;99741.19;;;19.40;64.36
16190;BME280;41754;51.498;7.540;2023-07-16T00:24:05;99738.53;;;19.40;64.30
16190;BME280;41754;51.498;7.540;2023-07-16T00:26:33;99746.06;;;19.37;64.67
16190;BME280;41754;51.498;7.540;2023-07-16T00:29:01;99751.22;;;19.30;65.16
16190;BME280;41754;51.498;7.540;2023-07-16T00:31:29;99746.75;;;19.31;65.29
16190;BME280;41754;51.498;7.540;2023-07-16T00:33:57;99755.75;;;19.30;65.22
16190;BME280;41754;51.498;7.540;2023-07-16T00:36:25;99752.09;;;19.31;65.27
16190;BME280;41754;51.498;7.540;2023-07-16T00:38:53;99753.06;;;19.30;65.55
16190;BME280;41754;51.498;7.540;2023-07-16T00:41:22;99759.41;;;19.28;65.11
16190;BME280;41754;51.498;7.540;2023-07-16T00:43:50;99749.91;;;19.26;65.21
16190;BME280;41754;51.498;7.540;2023-07-16T00:46:19;99758.09;;;19.24;65.34
16190;BME280;41754;51.498;7.540;2023-07-16T00:48:47;99749.94;;;19.18;65.83
16190;BME280;41754;51.498;7.540;2023-07-16T00:51:15;99759.78;;;19.17;66.18
16190;BME280;41754;51.498;7.540;2023-07-16T00:53:44;99762.09;;;19.20;65.54
16190;BME280;41754;51.498;7.540;2023-07-16T00:56:16;99761.75;;;19.15;66.04
16190;BME280;41754;51.498;7.540;2023-07-16T00:58:46;99753.44;;;19.10;66.05
16190;BME280;41754;51.498;7.540;2023-07-16T01:01:14;99747.63;;;19.06;65.92
16190;BME280;41754;51.498;7.540;2023-07-16T01:03:42;99752.28;;;19.04;66.32
16190;BME280;41754;51.498;7.540;2023-07-16T01:06:14;99750.44;;;18.97;66.31
16190;BME280;41754;51.498;7.540;2023-07-16T01:08:46;99760.13;;;18.98;66.13
16190;BME280;41754;51.498;7.540;2023-07-16T01:11:17;99767.47;;;18.96;66.52
16190;BME280;41754;51.498;7.540;2023-07-16T01:13:47;99764.47;;;18.90;66.58
16190;BME280;41754;51.498;7.540;2023-07-16T01:16:19;99760.91;;;18.82;66.56
16190;BME280;41754;51.498;7.540;2023-07-16T01:18:49;99758.25;;;18.82;66.73
16190;BME280;41754;51.498;7.540;2023-07-16T01:21:20;99771.09;;;18.78;66.68
16190;BME280;41754;51.498;7.540;2023-07-16T01:24:10;99770.75;;;18.73;66.52
16190;BME280;41754;51.498;7.540;2023-07-16T01:27:08;99765.41;;;18.73;66.56
16190;BME280;41754;51.498;7.540;2023-07-16T01:29:45;99761.59;;;18.67;66.51
16190;BME280;41754;51.498;7.540;2023-07-16T01:32:18;99775.41;;;18.63;66.76
16190;BME280;41754;51.498;7.540;2023-07-16T01:34:47;99779.75;;;18.64;66.34
16190;BME280;41754;51.498;7.540;2023-07-16T01:37:15;99777.72;;;18.58;66.83
16190;BME280;41754;51.498;7.540;2023-07-16T01:39:43;99782.41;;;18.56;66.53
16190;BME280;41754;51.498;7.540;2023-07-16T01:42:11;99785.72;;;18.49;66.55
16190;BME280;41754;51.498;7.540;2023-07-16T01:44:40;99782.06;;;18.50;66.52
16190;BME280;41754;51.498;7.540;2023-07-16T01:47:11;99778.56;;;18.42;66.85
16190;BME280;41754;51.498;7.540;2023-07-16T01:49:39;99793.69;;;18.41;67.31
16190;BME280;41754;51.498;7.540;2023-07-16T01:52:08;99796.00;;;18.36;66.97
16190;BME280;41754;51.498;7.540;2023-07-16T01:54:36;99795.00;;;18.29;67.26
16190;BME280;41754;51.498;7.540;2023-07-16T01:57:04;99797.31;;;18.24;67.32
16190;BME280;41754;51.498;7.540;2023-07-16T01:59:32;99785.31;;;18.20;67.51
16190;BME280;41754;51.498;7.540;2023-07-16T02:02:01;99789.66;;;18.21;67.13
16190;BME280;41754;51.498;7.540;2023-07-16T02:04:30;99803.59;;;18.14;67.90
16190;BME280;41754;51.498;7.540;2023-07-16T02:06:58;99798.94;;;18.08;67.56
16190;BME280;41754;51.498;7.540;2023-07-16T02:09:26;99801.91;;;18.05;67.30
16190;BME280;41754;51.498;7.540;2023-07-16T02:11:54;99804.91;;;18.02;67.37
16190;BME280;41754;51.498;7.540;2023-07-16T02:14:22;99813.72;;;18.03;66.94
16190;BME280;41754;51.498;7.540;2023-07-16T02:16:50;99811.56;;;18.06;67.41
16190;BME280;41754;51.498;7.540;2023-07-16T02:19:19;99807.41;;;18.04;67.51
16190;BME280;41754;51.498;7.540;2023-07-16T02:21:48;99820.88;;;18.02;67.53
16190;BME280;41754;51.498;7.540;2023-07-16T02:24:16;99812.22;;;18.00;68.35
16190;BME280;41754;51.498;7.540;2023-07-16T02:26:44;99815.84;;;17.99;68.82
16190;BME280;41754;51.498;7.540;2023-07-16T02:29:12;99819.50;;;17.98;69.31
16190;BME280;41754;51.498;7.540;2023-07-16T02:31:40;99815.50;;;17.94;69.51
16190;BME280;41754;51.498;7.540;2023-07-16T02:34:10;99826.31;;;17.92;69.73
16190;BME280;41754;51.498;7.540;2023-07-16T02:36:38;99826.63;;;17.89;70.24
16190;BME280;41754;51.498;7.540;2023-07-16T02:39:07;99823.88;;;17.81;70.33
16190;BME280;41754;51.498;7.540;2023-07-16T02:41:35;99823.38;;;17.77;70.93
16190;BME280;41754;51.498;7.540;2023-07-16T02:44:04;99830.69;;;17.75;71.07
16190;BME280;41754;51.498;7.540;2023-07-16T02:46:33;99827.72;;;17.78;70.92
16190;BME280;41754;51.498;7.540;2023-07-16T02:49:02;99825.69;;;17.72;71.34
16190;BME280;41754;51.498;7.540;2023-07-16T02:51:30;99835.34;;;17.73;71.63
16190;BME280;41754;51.498;7.540;2023-07-16T02:53:58;99836.94;;;17.66;72.12
16190;BME280;41754;51.498;7.540;2023-07-16T02:56:28;99829.31;;;17.71;71.89
16190;BME280;41754;51.498;7.540;2023-07-16T02:58:56;99831.16;;;17.71;71.97
16190;BME280;41754;51.498;7.540;2023-07-16T03:01:24;99833.66;;;17.72;71.39
16190;BME280;41754;51.498;7.540;2023-07-16T03:03:52;99841.69;;;17.80;70.70
16190;BME280;41754;51.498;7.540;2023-07-16T03:06:22;99840.00;;;17.79;70.77
16190;BME280;41754;51.498;7.540;2023-07-16T03:08:51;99853.66;;;17.76;70.91
16190;BME280;41754;51.498;7.540;2023-07-16T03:11:19;99853.31;;;17.79;70.53
16190;BME280;41754;51.498;7.540;2023-07-16T03:13:48;99850.81;;;17.78;70.78
16190;BME280;41754;51.498;7.540;2023-07-16T03:16:17;99853.00;;;17.83;70.37
16190;BME280;41754;51.498;7.540;2023-07-16T03:18:45;99854.00;;;17.82;70.72
16190;BME280;41754;51.498;7.540;2023-07-16T03:21:14;99859.06;;;17.93;70.09
16190;BME280;41754;51.498;7.540;2023-07-16T03:23:42;99861.38;;;17.88;70.24
16190;BME280;41754;51.498;7.540;2023-07-16T03:26:10;99864.06;;;17.96;69.83
16190;BME280;41754;51.498;7.540;2023-07-16T03:28:38;99854.28;;;17.96;69.49
16190;BME280;41754;51.498;7.540;2023-07-16T03:31:09;99862.44;;;17.95;69.50
16190;BME280;41754;51.498;7.540;2023-07-16T03:33:40;99865.09;;;17.95;68.61
16190;BME280;41754;51.498;7.540;2023-07-16T03:36:08;99871.91;;;17.97;68.78
16190;BME280;41754;51.498;7.540;2023-07-16T03:38:36;99875.75;;;17.95;68.54
16190;BME280;41754;51.498;7.540;2023-07-16T03:41:04;99883.03;;;17.93;67.74
16190;BME280;41754;51.498;7.540;2023-07-16T03:43:32;99879.84;;;17.89;67.38
16190;BME280;41754;51.498;7.540;2023-07-16T03:46:13;99885.44;;;17.86;67.61
16190;BME280;41754;51.498;7.540;2023-07-16T03:48:42;99889.13;;;17.85;66.90
16190;BME280;41754;51.498;7.540;2023-07-16T03:51:10;99893.06;;;17.81;67.44
16190;BME280;41754;51.498;7.540;2023-07-16T03:53:38;99900.22;;;17.80;66.89
16190;BME280;41754;51.498;7.540;2023-07-16T03:56:06;99908.50;;;17.77;66.16
16190;BME280;41754;51.498;7.540;2023-07-16T03:58:34;99910.19;;;17.78;65.65
16190;BME280;41754;51.498;7.540;2023-07-16T04:01:04;99905.19;;;17.75;65.49
16190;BME280;41754;51.498;7.540;2023-07-16T04:03:34;99912.50;;;17.73;65.56
16190;BME280;41754;51.498;7.540;2023-07-16T04:06:05;99919.16;;;17.77;63.76
16190;BME280;41754;51.498;7.540;2023-07-16T04:08:36;99927.28;;;17.76;63.49
16190;BME280;41754;51.498;7.540;2023-07-16T04:11:04;99914.00;;;17.76;62.55
16190;BME280;41754;51.498;7.540;2023-07-16T04:13:32;99918.50;;;17.75;62.34
16190;BME280;41754;51.498;7.540;2023-07-16T04:16:00;99926.78;;;17.72;61.04
16190;BME280;41754;51.498;7.540;2023-07-16T04:18:28;99923.81;;;17.75;60.97
16190;BME280;41754;51.498;7.540;2023-07-16T04:20:57;99932.09;;;17.72;60.27
16190;BME280;41754;51.498;7.540;2023-07-16T04:23:26;99928.91;;;17.69;59.95
16190;BME280;41754;51.498;7.540;2023-07-16T04:25:55;99932.72;;;17.66;60.44
16190;BME280;41754;51.498;7.540;2023-07-16T04:28:23;99922.06;;;17.66;60.05
16190;BME280;41754;51.498;7.540;2023-07-16T04:30:51;99922.56;;;17.61;60.29
16190;BME280;41754;51.498;7.540;2023-07-16T04:33:19;99930.53;;;17.61;60.31
16190;BME280;41754;51.498;7.540;2023-07-16T04:35:46;99933.03;;;17.63;59.51
16190;BME280;41754;51.498;7.540;2023-07-16T04:38:16;99934.25;;;17.69;59.00
16190;BME280;41754;51.498;7.540;2023-07-16T04:40:44;99935.06;;;17.69;59.42
16190;BME280;41754;51.498;7.540;2023-07-16T04:43:12;99945.03;;;17.67;59.54
16190;BME280;41754;51.498;7.540;2023-07-16T04:45:40;99941.25;;;17.70;59.86
16190;BME280;41754;51.498;7.540;2023-07-16T04:48:08;99948.38;;;17.69;60.03
16190;BME280;41754;51.498;7.540;2023-07-16T04:50:35;99948.66;;;17.66;60.05
16190;BME280;41754;51.498;7.540;2023-07-16T04:53:03;99956.84;;;17.65;59.78
16190;BME280;41754;51.498;7.540;2023-07-16T04:55:36;99952.72;;;17.70;59.81
16190;BME280;41754;51.498;7.540;2023-07-16T04:58:04;99953.69;;;17.69;59.36
16190;BME280;41754;51.498;7.540;2023-07-16T05:00:32;99961.22;;;17.74;58.96
16190;BME280;41754;51.498;7.540;2023-07-16T05:03:00;99969.34;;;17.72;59.70
16190;BME280;41754;51.498;7.540;2023-07-16T05:05:28;99968.38;;;17.73;59.21
16190;BME280;41754;51.498;7.540;2023-07-16T05:07:56;99958.25;;;17.77;58.48
16190;BME280;41754;51.498;7.540;2023-07-16T05:10:24;99966.75;;;17.80;58.42
16190;BME280;41754;51.498;7.540;2023-07-16T05:12:53;99973.75;;;17.82;59.08
16190;BME280;41754;51.498;7.540;2023-07-16T05:15:21;99975.41;;;17.83;58.08
16190;BME280;41754;51.498;7.540;2023-07-16T05:17:49;99979.47;;;17.87;57.84
16190;BME280;41754;51.498;7.540;2023-07-16T05:20:17;99975.09;;;17.86;57.68
16190;BME280;41754;51.498;7.540;2023-07-16T05:22:47;99982.13;;;17.87;57.46
16190;BME280;41754;51.498;7.540;2023-07-16T05:25:15;99981.84;;;17.90;56.89
16190;BME280;41754;51.498;7.540;2023-07-16T05:27:43;99988.81;;;17.91;56.93
16190;BME280;41754;51.498;7.540;2023-07-16T05:30:12;99997.47;;;17.93;57.14
16190;BME280;41754;51.498;7.540;2023-07-16T05:32:40;100001.13;;;17.92;57.06
16190;BME280;41754;51.498;7.540;2023-07-16T05:35:08;100007.81;;;17.96;56.82
16190;BME280;41754;51.498;7.540;2023-07-16T05:37:36;100003.00;;;17.99;56.95
16190;BME280;41754;51.498;7.540;2023-07-16T05:40:06;100003.88;;;18.00;56.48
16190;BME280;41754;51.498;7.540;2023-07-16T05:42:35;100006.38;;;18.02;56.74
16190;BME280;41754;51.498;7.540;2023-07-16T05:45:04;100007.88;;;18.04;56.85
16190;BME280;41754;51.498;7.540;2023-07-16T05:47:33;100012.72;;;18.09;56.53
16190;BME280;41754;51.498;7.540;2023-07-16T05:50:01;100011.91;;;18.08;56.62
16190;BME280;41754;51.498;7.540;2023-07-16T05:52:29;100004.66;;;18.19;56.57
16190;BME280;41754;51.498;7.540;2023-07-16T05:54:58;100011.84;;;18.26;56.68
16190;BME280;41754;51.498;7.540;2023-07-16T05:57:26;100015.00;;;18.22;55.99
16190;BME280;41754;51.498;7.540;2023-07-16T05:59:54;100026.22;;;18.33;55.67
16190;BME280;41754;51.498;7.540;2023-07-16T06:02:22;100016.34;;;18.26;55.58
16190;BME280;41754;51.498;7.540;2023-07-16T06:04:51;100017.66;;;18.22;55.98
16190;BME280;41754;51.498;7.540;2023-07-16T06:07:19;100024.22;;;18.35;56.03
16190;BME280;41754;51.498;7.540;2023-07-16T06:09:47;100026.09;;;18.43;55.14
16190;BME280;41754;51.498;7.540;2023-07-16T06:12:15;100029.75;;;18.42;54.74
16190;BME280;41754;51.498;7.540;2023-07-16T06:14:43;100034.97;;;18.26;55.10
16190;BME280;41754;51.498;7.540;2023-07-16T06:17:10;100035.84;;;18.34;54.76
16190;BME280;41754;51.498;7.540;2023-07-16T06:19:38;100033.59;;;18.48;54.51
16190;BME280;41754;51.498;7.540;2023-07-16T06:22:07;100041.66;;;18.56;54.02
16190;BME280;41754;51.498;7.540;2023-07-16T06:24:35;100038.88;;;18.66;53.62
16190;BME280;41754;51.498;7.540;2023-07-16T06:27:04;100042.56;;;18.73;54.09
16190;BME280;41754;51.498;7.540;2023-07-16T06:29:32;100053.38;;;18.98;53.14
16190;BME280;41754;51.498;7.540;2023-07-16T06:32:00;100046.34;;;18.97;52.22
16190;BME280;41754;51.498;7.540;2023-07-16T06:34:29;100049.75;;;19.15;52.70
16190;BME280;41754;51.498;7.540;2023-07-16T06:36:57;100049.81;;;19.40;51.54
16190;BME280;41754;51.498;7.540;2023-07-16T06:39:27;100050.50;;;19.42;51.25
16190;BME280;41754;51.498;7.540;2023-07-16T06:41:54;100055.03;;;19.50;51.63
16190;BME280;41754;51.498;7.540;2023-07-16T06:44:22;100057.50;;;19.35;51.10
16190;BME280;41754;51.498;7.540;2023-07-16T06:46:50;100055.16;;;19.32;51.21
16190;BME280;41754;51.498;7.540;2023-07-16T06:49:19;100061.13;;;19.25;50.74
16190;BME280;41754;51.498;7.540;2023-07-16T06:51:47;100057.88;;;18.97;50.05
16190;BME280;41754;51.498;7.540;2023-07-16T06:54:15;100056.88;;;18.98;51.32
16190;BME280;41754;51.498;7.540;2023-07-16T06:56:44;100075.69;;;18.97;50.67
16190;BME280;41754;51.498;7.540;2023-07-16T06:59:12;100068.19;;;18.66;50.39
16190;BME280;41754;51.498;7.540;2023-07-16T07:01:40;100064.44;;;18.50;50.77
16190;BME280;41754;51.498;7.540;2023-07-16T07:04:08;100064.66;;;18.57;51.01
16190;BME280;41754;51.498;7.540;2023-07-16T07:06:36;100069.16;;;18.65;50.58
16190;BME280;41754;51.498;7.540;2023-07-16T07:09:03;100070.19;;;18.64;50.79
16190;BME280;41754;51.498;7.540;2023-07-16T07:11:32;100072.75;;;18.82;50.73
16190;BME280;41754;51.498;7.540;2023-07-16T07:14:01;100069.06;;;19.01;49.83
16190;BME280;41754;51.498;7.540;2023-07-16T07:16:29;100077.75;;;19.11;50.32
16190;BME280;41754;51.498;7.540;2023-07-16T07:18:57;100065.88;;;18.97;49.58
16190;BME280;41754;51.498;7.540;2023-07-16T07:21:25;100065.41;;;19.10;49.22
16190;BME280;41754;51.498;7.540;2023-07-16T07:23:53;100066.16;;;19.37;48.99
16190;BME280;41754;51.498;7.540;2023-07-16T07:26:21;100079.13;;;19.23;48.98
16190;BME280;41754;51.498;7.540;2023-07-16T07:28:49;100080.09;;;19.14;48.82
16190;BME280;41754;51.498;7.540;2023-07-16T07:31:18;100075.63;;;19.23;49.50
16190;BME280;41754;51.498;7.540;2023-07-16T07:33:46;100082.97;;;19.21;48.95
16190;BME280;41754;51.498;7.540;2023-07-16T07:36:14;100067.09;;;19.11;48.75
16190;BME280;41754;51.498;7.540;2023-07-16T07:38:43;100066.91;;;19.04;48.97
16190;BME280;41754;51.498;7.540;2023-07-16T07:41:11;100073.31;;;18.85;48.66
16190;BME280;41754;51.498;7.540;2023-07-16T07:43:39;100078.69;;;19.02;49.32
16190;BME280;41754;51.498;7.540;2023-07-16T07:46:06;100083.56;;;19.06;48.88
16190;BME280;41754;51.498;7.540;2023-07-16T07:48:36;100093.09;;;19.09;47.73
16190;BME280;41754;51.498;7.540;2023-07-16T07:51:04;100078.50;;;19.38;47.81
16190;BME280;41754;51.498;7.540;2023-07-16T07:53:32;100092.25;;;19.59;46.63
16190;BME280;41754;51.498;7.540;2023-07-16T07:56:00;100078.91;;;19.68;46.34
16190;BME280;41754;51.498;7.540;2023-07-16T07:58:27;100086.09;;;19.75;47.39
16190;BME280;41754;51.498;7.540;2023-07-16T08:00:55;100091.28;;;19.85;46.56
16190;BME280;41754;51.498;7.540;2023-07-16T08:03:23;100102.25;;;19.65;46.09
16190;BME280;41754;51.498;7.540;2023-07-16T08:05:53;100106.00;;;19.89;45.53
16190;BME280;41754;51.498;7.540;2023-07-16T08:08:21;100099.56;;;19.57;45.58
16190;BME280;41754;51.498;7.540;2023-07-16T08:10:48;100096.88;;;19.57;45.73
16190;BME280;41754;51.498;7.540;2023-07-16T08:13:16;100104.19;;;19.47;45.36
16190;BME280;41754;51.498;7.540;2023-07-16T08:15:44;100092.91;;;19.70;44.50
16190;BME280;41754;51.498;7.540;2023-07-16T08:18:14;100105.13;;;19.80;44.53
16190;BME280;41754;51.498;7.540;2023-07-16T08:20:42;100105.63;;;19.84;44.11
16190;BME280;41754;51.498;7.540;2023-07-16T08:23:12;100100.66;;;20.14;43.81
16190;BME280;41754;51.498;7.540;2023-07-16T08:25:40;100106.50;;;20.17;42.84
16190;BME280;41754;51.498;7.540;2023-07-16T08:28:08;100095.97;;;20.24;42.74
16190;BME280;41754;51.498;7.540;2023-07-16T08:30:36;100107.50;;;20.25;43.87
16190;BME280;41754;51.498;7.540;2023-07-16T08:33:04;100095.16;;;20.24;42.10
16190;BME280;41754;51.498;7.540;2023-07-16T08:35:32;100096.97;;;20.39;43.03
16190;BME280;41754;51.498;7.540;2023-07-16T08:38:01;100092.94;;;20.60;41.40
16190;BME280;41754;51.498;7.540;2023-07-16T08:40:30;100112.97;;;20.48;40.97
16190;BME280;41754;51.498;7.540;2023-07-16T08:42:58;100100.09;;;20.68;40.50
16190;BME280;41754;51.498;7.540;2023-07-16T08:45:28;100109.63;;;20.79;41.44
16190;BME280;41754;51.498;7.540;2023-07-16T08:47:57;100114.66;;;20.65;41.12
16190;BME280;41754;51.498;7.540;2023-07-16T08:50:26;100117.66;;;20.79;41.05
16190;BME280;41754;51.498;7.540;2023-07-16T08:52:58;100118.25;;;20.97;40.20
16190;BME280;41754;51.498;7.540;2023-07-16T08:55:26;100122.25;;;21.01;40.44
16190;BME280;41754;51.498;7.540;2023-07-16T08:57:56;100123.59;;;21.05;40.83
16190;BME280;41754;51.498;7.540;2023-07-16T09:00:26;100132.94;;;21.01;40.37
16190;BME280;41754;51.498;7.540;2023-07-16T09:02:54;100113.44;;;20.84;40.39
16190;BME280;41754;51.498;7.540;2023-07-16T09:05:23;100128.34;;;20.79;40.62
16190;BME280;41754;51.498;7.540;2023-07-16T09:08:05;100126.91;;;21.07;40.17
16190;BME280;41754;51.498;7.540;2023-07-16T09:10:34;100129.53;;;21.24;40.61
16190;BME280;41754;51.498;7.540;2023-07-16T09:13:03;100121.16;;;21.27;39.67
16190;BME280;41754;51.498;7.540;2023-07-16T09:15:32;100117.88;;;21.17;39.99
16190;BME280;41754;51.498;7.540;2023-07-16T09:18:00;100112.53;;;21.08;40.40
16190;BME280;41754;51.498;7.540;2023-07-16T09:20:29;100123.59;;;20.97;40.55
16190;BME280;41754;51.498;7.540;2023-07-16T09:22:58;100126.22;;;21.22;42.25
16190;BME280;41754;51.498;7.540;2023-07-16T09:25:27;100125.00;;;20.85;41.45
16190;BME280;41754;51.498;7.540;2023-07-16T09:27:55;100122.50;;;20.75;40.07
16190;BME280;41754;51.498;7.540;2023-07-16T09:30:24;100134.66;;;20.94;40.61
16190;BME280;41754;51.498;7.540;2023-07-16T09:32:52;100127.50;;;21.26;39.60
16190;BME280;41754;51.498;7.540;2023-07-16T09:35:20;100130.81;;;21.36;40.12
16190;BME280;41754;51.498;7.540;2023-07-16T09:37:48;100136.38;;;21.66;39.33
16190;BME280;41754;51.498;7.540;2023-07-16T09:40:17;100124.41;;;21.77;38.52
16190;BME280;41754;51.498;7.540;2023-07-16T09:42:46;100136.41;;;21.89;38.89
16190;BME280;41754;51.498;7.540;2023-07-16T09:45:17;100146.44;;;22.10;38.28
16190;BME280;41754;51.498;7.540;2023-07-16T09:47:47;100140.69;;;21.98;37.67
16190;BME280;41754;51.498;7.540;2023-07-16T09:50:15;100135.38;;;21.67;39.88
16190;BME280;41754;51.498;7.540;2023-07-16T09:52:43;100149.50;;;21.84;39.13
16190;BME280;41754;51.498;7.540;2023-07-16T09:55:13;100140.88;;;22.43;37.28
16190;BME280;41754;51.498;7.540;2023-07-16T09:57:43;100141.59;;;22.37;37.85
16190;BME280;41754;51.498;7.540;2023-07-16T10:00:12;100144.97;;;22.69;38.09
16190;BME280;41754;51.498;7.540;2023-07-16T10:02:44;100142.88;;;22.18;38.51
16190;BME280;41754;51.498;7.540;2023-07-16T10:05:14;100132.63;;;22.83;37.13
16190;BME280;41754;51.498;7.540;2023-07-16T10:07:50;100146.94;;;22.37;37.96
16190;BME280;41754;51.498;7.540;2023-07-16T10:10:19;100149.06;;;22.65;36.62
16190;BME280;41754;51.498;7.540;2023-07-16T10:13:02;100118.72;;;22.03;37.64
16190;BME280;41754;51.498;7.540;2023-07-16T10:15:30;100139.78;;;22.52;37.25
16190;BME280;41754;51.498;7.540;2023-07-16T10:17:58;100131.47;;;22.77;36.96
16190;BME280;41754;51.498;7.540;2023-07-16T10:20:32;100138.47;;;22.48;37.76
16190;BME280;41754;51.498;7.540;2023-07-16T10:23:10;100140.66;;;22.68;37.20
16190;BME280;41754;51.498;7.540;2023-07-16T10:25:39;100147.44;;;23.38;35.92
16190;BME280;41754;51.498;7.540;2023-07-16T10:28:07;100145.81;;;23.59;35.28
16190;BME280;41754;51.498;7.540;2023-07-16T10:30:35;100151.50;;;23.85;35.58
16190;BME280;41754;51.498;7.540;2023-07-16T10:33:11;100160.31;;;23.64;34.12
16190;BME280;41754;51.498;7.540;2023-07-16T10:35:42;100158.22;;;23.00;35.95
16190;BME280;41754;51.498;7.540;2023-07-16T10:38:10;100152.22;;;23.43;35.98
16190;BME280;41754;51.498;7.540;2023-07-16T10:40:44;100148.25;;;23.39;35.73
16190;BME280;41754;51.498;7.540;2023-07-16T10:43:12;100147.16;;;23.18;36.05
16190;BME280;41754;51.498;7.540;2023-07-16T10:45:40;100149.69;;;23.56;35.33
16190;BME280;41754;51.498;7.540;2023-07-16T10:48:08;100151.13;;;23.22;35.25
16190;BME280;41754;51.498;7.540;2023-07-16T10:50:36;100158.72;;;23.33;35.08
16190;BME280;41754;51.498;7.540;2023-07-16T10:53:06;100162.78;;;23.00;35.87
16190;BME280;41754;51.498;7.540;2023-07-16T10:55:34;100164.44;;;23.30;36.63
16190;BME280;41754;51.498;7.540;2023-07-16T10:58:05;100164.66;;;23.14;37.26
16190;BME280;41754;51.498;7.540;2023-07-16T11:00:37;100155.13;;;22.58;36.69
16190;BME280;41754;51.498;7.540;2023-07-16T11:03:05;100172.19;;;22.95;36.93
16190;BME280;41754;51.498;7.540;2023-07-16T11:05:34;100167.03;;;23.39;36.78
16190;BME280;41754;51.498;7.540;2023-07-16T11:08:03;100169.41;;;23.63;35.01
16190;BME280;41754;51.498;7.540;2023-07-16T11:10:32;100170.91;;;23.36;35.59
16190;BME280;41754;51.498;7.540;2023-07-16T11:13:00;100167.22;;;23.52;35.32
16190;BME280;41754;51.498;7.540;2023-07-16T11:15:31;100162.66;;;24.75;34.80
16190;BME280;41754;51.498;7.540;2023-07-16T11:18:00;100169.94;;;25.16;33.83
16190;BME280;41754;51.498;7.540;2023-07-16T11:20:29;100159.16;;;26.80;29.88
16190;BME280;41754;51.498;7.540;2023-07-16T11:22:58;100167.41;;;24.52;31.81
16190;BME280;41754;51.498;7.540;2023-07-16T11:25:28;100166.19;;;23.53;34.47
16190;BME280;41754;51.498;7.540;2023-07-16T11:27:58;100173.34;;;24.62;33.58
16190;BME280;41754;51.498;7.540;2023-07-16T11:30:26;100159.22;;;24.88;33.00
16190;BME280;41754;51.498;7.540;2023-07-16T11:32:54;100174.94;;;26.43;30.25
16190;BME280;41754;51.498;7.540;2023-07-16T11:35:22;100173.97;;;25.82;32.30
16190;BME280;41754;51.498;7.540;2023-07-16T11:37:50;100181.53;;;25.17;32.72
16190;BME280;41754;51.498;7.540;2023-07-16T11:40:19;100185.03;;;24.11;34.56
16190;BME280;41754;51.498;7.540;2023-07-16T11:42:48;100193.94;;;24.12;34.89
16190;BME280;41754;51.498;7.540;2023-07-16T11:45:19;100183.44;;;23.95;34.41
16190;BME280;41754;51.498;7.540;2023-07-16T11:47:49;100176.47;;;23.05;36.28
16190;BME280;41754;51.498;7.540;2023-07-16T11:50:18;100169.28;;;25.43;31.66
16190;BME280;41754;51.498;7.540;2023-07-16T11:52:52;100172.75;;;25.30;31.93
16190;BME280;41754;51.498;7.540;2023-07-16T11:55:20;100172.47;;;24.40;33.57
16190;BME280;41754;51.498;7.540;2023-07-16T11:57:48;100183.81;;;23.92;34.64
16190;BME280;41754;51.498;7.540;2023-07-16T12:00:17;100186.59;;;24.20;33.83
16190;BME280;41754;51.498;7.540;2023-07-16T12:02:45;100189.97;;;25.42;33.39
16190;BME280;41754;51.498;7.540;2023-07-16T12:05:19;100186.91;;;25.17;32.28
16190;BME280;41754;51.498;7.540;2023-07-16T12:07:59;100176.13;;;26.07;32.13
16190;BME280;41754;51.498;7.540;2023-07-16T12:10:27;100185.28;;;26.86;29.85
16190;BME280;41754;51.498;7.540;2023-07-16T12:12:55;100185.69;;;24.85;33.13
16190;BME280;41754;51.498;7.540;2023-07-16T12:15:24;100202.38;;;23.87;35.98
16190;BME280;41754;51.498;7.540;2023-07-16T12:17:52;100190.69;;;23.80;35.03
16190;BME280;41754;51.498;7.540;2023-07-16T12:20:20;100186.38;;;24.43;34.13
16190;BME280;41754;51.498;7.540;2023-07-16T12:22:48;100195.91;;;24.46;33.23
16190;BME280;41754;51.498;7.540;2023-07-16T12:25:16;100184.16;;;25.04;33.35
16190;BME280;41754;51.498;7.540;2023-07-16T12:27:46;100196.88;;;24.60;34.37
16190;BME280;41754;51.498;7.540;2023-07-16T12:30:14;100190.59;;;24.10;34.94
16190;BME280;41754;51.498;7.540;2023-07-16T12:32:43;100187.97;;;23.95;34.73
16190;BME280;41754;51.498;7.540;2023-07-16T12:35:11;100195.53;;;24.06;34.97
16190;BME280;41754;51.498;7.540;2023-07-16T12:37:40;100197.28;;;24.35;34.66
16190;BME280;41754;51.498;7.540;2023-07-16T12:40:09;100187.06;;;24.74;34.09
16190;BME280;41754;51.498;7.540;2023-07-16T12:42:37;100200.97;;;24.77;33.18
16190;BME280;41754;51.498;7.540;2023-07-16T12:45:05;100201.44;;;23.80;35.19
16190;BME280;41754;51.498;7.540;2023-07-16T12:47:34;100191.56;;;23.50;36.61
16190;BME280;41754;51.498;7.540;2023-07-16T12:50:04;100186.97;;;23.29;36.08
16190;BME280;41754;51.498;7.540;2023-07-16T12:52:32;100204.63;;;23.24;35.86
16190;BME280;41754;51.498;7.540;2023-07-16T12:55:00;100206.84;;;25.23;33.21
16190;BME280;41754;51.498;7.540;2023-07-16T12:57:28;100205.00;;;27.20;29.32
16190;BME280;41754;51.498;7.540;2023-07-16T12:59:56;100211.88;;;28.20;27.71
16190;BME280;41754;51.498;7.540;2023-07-16T13:02:23;100209.06;;;28.33;26.96
16190;BME280;41754;51.498;7.540;2023-07-16T13:04:51;100208.38;;;28.44;27.47